sensor_id;sensor_type;location;lat;lon;timestamp;pressure;altitude;pressure_sealevel;temperature;humidity
21431;BME280;10876;49.038;10.608;2022-09-02T00:01:27;101733.69;;;11.37;100.00
21431;BME280;10876;49.038;10.608;2022-09-02T00:03:58;101717.00;;;11.26;100.00
21431;BME280;10876;49.038;10.608;2022-09-02T00:06:26;101690.53;;;11.09;100.00
21431;BME280;10876;49.038;10.608;2022-09-02T00:08:54;101714.13;;;11.33;100.00
21431;BME280;10876;49.038;10.608;2022-09-02T00:11:24;101731.16;;;11.47;100.00
21431;BME280;10876;49.038;10.608;2022-09-02T00:13:52;101746.28;;;11.61;100.00
21431;BME280;10876;49.038;10.608;2022-09-02T00:16:19;101743.66;;;11.66;100.00
21431;BME280;10876;49.038;10.608;2022-09-02T00:18:48;101753.16;;;11.76;100.00
21431;BME280;10876;49.038;10.608;2022-09-02T00:21:19;101756.50;;;11.78;100.00
21431;BME280;10876;49.038;10.608;2022-09-02T00:23:46;101760.91;;;11.79;100.00
21431;BME280;10876;49.038;10.608;2022-09-02T00:26:14;101771.34;;;11.77;100.00
21431;BME280;10876;49.038;10.608;2022-09-02T00:28:41;101761.06;;;11.72;100.00
21431;BME280;10876;49.038;10.608;2022-09-02T00:31:08;101728.91;;;11.44;100.00
21431;BME280;10876;49.038;10.608;2022-09-02T00:33:35;101728.22;;;11.37;100.00
21431;BME280;10876;49.038;10.608;2022-09-02T00:36:03;101702.66;;;11.24;100.00
21431;BME280;10876;49.038;10.608;2022-09-02T00:38:33;101693.63;;;11.12;100.00
21431;BME280;10876;49.038;10.608;2022-09-02T00:41:02;101695.53;;;11.23;100.00
21431;BME280;10876;49.038;10.608;2022-09-02T00:43:43;101675.50;;;11.11;100.00
21431;BME280;10876;49.038;10.608;2022-09-02T00:46:13;101689.56;;;11.26;100.00
21431;BME280;10876;49.038;10.608;2022-09-02T00:48:45;101691.44;;;11.38;100.00
21431;BME280;10876;49.038;10.608;2022-09-02T00:51:14;101698.47;;;11.45;100.00
21431;BME280;10876;49.038;10.608;2022-09-02T00:53:45;101691.19;;;11.51;100.00
21431;BME280;10876;49.038;10.608;2022-09-02T00:56:17;101641.38;;;11.07;100.00
21431;BME280;10876;49.038;10.608;2022-09-02T00:58:45;101621.25;;;10.90;100.00
21431;BME280;10876;49.038;10.608;2022-09-02T01:01:13;101600.44;;;10.77;100.00
21431;BME280;10876;49.038;10.608;2022-09-02T01:03:40;101608.03;;;10.87;100.00
21431;BME280;10876;49.038;10.608;2022-09-02T01:06:09;101613.28;;;11.00;100.00
21431;BME280;10876;49.038;10.608;2022-09-02T01:08:43;101625.03;;;11.12;100.00
21431;BME280;10876;49.038;10.608;2022-09-02T01:11:13;101643.28;;;11.18;100.00
21431;BME280;10876;49.038;10.608;2022-09-02T01:13:42;101651.47;;;11.30;100.00
21431;BME280;10876;49.038;10.608;2022-09-02T01:16:12;101651.25;;;11.32;100.00
21431;BME280;10876;49.038;10.608;2022-09-02T01:18:44;101653.00;;;11.38;100.00
21431;BME280;10876;49.038;10.608;2022-09-02T01:21:13;101640.75;;;11.28;100.00
21431;BME280;10876;49.038;10.608;2022-09-02T01:23:41;101631.31;;;11.24;100.00
21431;BME280;10876;49.038;10.608;2022-09-02T01:26:08;101625.00;;;11.24;100.00
21431;BME280;10876;49.038;10.608;2022-09-02T01:28:36;101617.03;;;11.22;100.00
21431;BME280;10876;49.038;10.608;2022-09-02T01:31:03;101626.44;;;11.26;100.00
21431;BME280;10876;49.038;10.608;2022-09-02T01:33:30;101620.59;;;11.23;100.00
21431;BME280;10876;49.038;10.608;2022-09-02T01:35:57;101639.56;;;11.36;100.00
21431;BME280;10876;49.038;10.608;2022-09-02T01:38:24;101641.06;;;11.44;100.00
21431;BME280;10876;49.038;10.608;2022-09-02T01:40:53;101603.69;;;11.14;100.00
21431;BME280;10876;49.038;10.608;2022-09-02T01:43:22;101612.13;;;11.24;100.00
21431;BME280;10876;49.038;10.608;2022-09-02T01:45:52;101619.88;;;11.27;100.00
21431;BME280;10876;49.038;10.608;2022-09-02T01:48:20;101624.41;;;11.34;100.00
21431;BME280;10876;49.038;10.608;2022-09-02T01:50:49;101619.25;;;11.37;100.00
21431;BME280;10876;49.038;10.608;2022-09-02T01:53:17;101620.69;;;11.40;100.00
21431;BME280;10876;49.038;10.608;2022-09-02T01:55:44;101628.53;;;11.48;100.00
21431;BME280;10876;49.038;10.608;2022-09-02T01:58:12;101621.94;;;11.49;100.00
21431;BME280;10876;49.038;10.608;2022-09-02T02:00:40;101609.31;;;11.48;100.00
21431;BME280;10876;49.038;10.608;2022-09-02T02:03:07;101597.63;;;11.41;100.00
21431;BME280;10876;49.038;10.608;2022-09-02T02:05:34;101587.84;;;11.45;100.00
21431;BME280;10876;49.038;10.608;2022-09-02T02:08:01;101576.75;;;11.40;100.00
21431;BME280;10876;49.038;10.608;2022-09-02T02:10:28;101565.78;;;11.40;100.00
21431;BME280;10876;49.038;10.608;2022-09-02T02:12:56;101561.72;;;11.42;100.00
21431;BME280;10876;49.038;10.608;2022-09-02T02:15:24;101570.88;;;11.48;100.00
21431;BME280;10876;49.038;10.608;2022-09-02T02:17:51;101561.56;;;11.49;100.00
21431;BME280;10876;49.038;10.608;2022-09-02T02:20:19;101562.81;;;11.58;100.00
21431;BME280;10876;49.038;10.608;2022-09-02T02:22:47;101569.72;;;11.61;100.00
21431;BME280;10876;49.038;10.608;2022-09-02T02:25:14;101559.56;;;11.61;100.00
21431;BME280;10876;49.038;10.608;2022-09-02T02:27:42;101558.75;;;11.61;100.00
21431;BME280;10876;49.038;10.608;2022-09-02T02:30:12;101543.25;;;11.55;100.00
21431;BME280;10876;49.038;10.608;2022-09-02T02:32:42;101535.03;;;11.55;100.00
21431;BME280;10876;49.038;10.608;2022-09-02T02:35:10;101520.16;;;11.50;100.00
21431;BME280;10876;49.038;10.608;2022-09-02T02:37:37;101501.16;;;11.49;100.00
21431;BME280;10876;49.038;10.608;2022-09-02T02:40:06;101496.66;;;11.43;100.00
21431;BME280;10876;49.038;10.608;2022-09-02T02:42:33;101483.53;;;11.45;100.00
21431;BME280;10876;49.038;10.608;2022-09-02T02:45:01;101481.34;;;11.47;100.00
21431;BME280;10876;49.038;10.608;2022-09-02T02:47:28;101471.69;;;11.44;100.00
21431;BME280;10876;49.038;10.608;2022-09-02T02:49:56;101463.72;;;11.43;100.00
21431;BME280;10876;49.038;10.608;2022-09-02T02:52:23;101456.22;;;11.38;100.00
21431;BME280;10876;49.038;10.608;2022-09-02T02:54:51;101453.00;;;11.41;100.00
21431;BME280;10876;49.038;10.608;2022-09-02T02:57:18;101437.28;;;11.37;100.00
21431;BME280;10876;49.038;10.608;2022-09-02T02:59:45;101420.50;;;11.33;100.00
21431;BME280;10876;49.038;10.608;2022-09-02T03:02:13;101398.09;;;11.24;100.00
21431;BME280;10876;49.038;10.608;2022-09-02T03:04:41;101398.84;;;11.20;100.00
21431;BME280;10876;49.038;10.608;2022-09-02T03:07:10;101362.91;;;11.21;100.00
21431;BME280;10876;49.038;10.608;2022-09-02T03:09:37;101349.47;;;11.20;100.00
21431;BME280;10876;49.038;10.608;2022-09-02T03:12:05;101347.31;;;11.22;100.00
21431;BME280;10876;49.038;10.608;2022-09-02T03:14:31;101335.47;;;11.21;100.00
21431;BME280;10876;49.038;10.608;2022-09-02T03:16:58;101323.34;;;11.17;100.00
21431;BME280;10876;49.038;10.608;2022-09-02T03:19:25;101310.72;;;11.16;100.00
21431;BME280;10876;49.038;10.608;2022-09-02T03:21:52;101297.75;;;11.12;100.00
21431;BME280;10876;49.038;10.608;2022-09-02T03:24:20;101287.97;;;10.99;100.00
21431;BME280;10876;49.038;10.608;2022-09-02T03:26:47;101296.84;;;11.06;100.00
21431;BME280;10876;49.038;10.608;2022-09-02T03:29:14;101270.66;;;10.98;100.00
21431;BME280;10876;49.038;10.608;2022-09-02T03:31:41;101273.16;;;11.00;100.00
21431;BME280;10876;49.038;10.608;2022-09-02T03:34:07;101258.22;;;10.91;100.00
21431;BME280;10876;49.038;10.608;2022-09-02T03:36:37;101256.88;;;10.93;100.00
21431;BME280;10876;49.038;10.608;2022-09-02T03:39:05;101254.69;;;10.95;100.00
21431;BME280;10876;49.038;10.608;2022-09-02T03:41:33;101252.22;;;10.94;100.00
21431;BME280;10876;49.038;10.608;2022-09-02T03:44:00;101256.03;;;10.93;100.00
21431;BME280;10876;49.038;10.608;2022-09-02T03:46:28;101258.78;;;10.93;100.00
21431;BME280;10876;49.038;10.608;2022-09-02T03:48:54;101253.88;;;10.95;100.00
21431;BME280;10876;49.038;10.608;2022-09-02T03:51:24;101237.50;;;10.83;100.00
21431;BME280;10876;49.038;10.608;2022-09-02T03:53:51;101236.28;;;10.74;100.00
21431;BME280;10876;49.038;10.608;2022-09-02T03:56:19;101239.94;;;10.79;100.00
21431;BME280;10876;49.038;10.608;2022-09-02T03:58:50;101236.09;;;10.80;100.00
21431;BME280;10876;49.038;10.608;2022-09-02T04:01:19;101222.16;;;10.65;100.00
21431;BME280;10876;49.038;10.608;2022-09-02T04:03:46;101238.59;;;10.65;100.00
21431;BME280;10876;49.038;10.608;2022-09-02T04:06:15;101241.44;;;10.70;100.00
21431;BME280;10876;49.038;10.608;2022-09-02T04:08:43;101240.94;;;10.73;100.00
21431;BME280;10876;49.038;10.608;2022-09-02T04:11:12;101249.72;;;10.75;100.00
21431;BME280;10876;49.038;10.608;2022-09-02T04:13:40;101250.22;;;10.72;100.00
21431;BME280;10876;49.038;10.608;2022-09-02T04:16:10;101235.94;;;10.70;100.00
21431;BME280;10876;49.038;10.608;2022-09-02T04:22:16;101242.81;;;10.73;100.00
21431;BME280;10876;49.038;10.608;2022-09-02T04:24:42;101237.59;;;10.71;100.00
21431;BME280;10876;49.038;10.608;2022-09-02T04:27:09;101237.28;;;10.68;100.00
21431;BME280;10876;49.038;10.608;2022-09-02T04:29:36;101234.19;;;10.64;100.00
21431;BME280;10876;49.038;10.608;2022-09-02T04:32:04;101233.84;;;10.60;100.00
21431;BME280;10876;49.038;10.608;2022-09-02T04:34:31;101221.47;;;10.58;100.00
21431;BME280;10876;49.038;10.608;2022-09-02T04:36:58;101220.97;;;10.61;100.00
21431;BME280;10876;49.038;10.608;2022-09-02T04:39:24;101212.69;;;10.56;100.00
21431;BME280;10876;49.038;10.608;2022-09-02T04:41:51;101203.19;;;10.47;100.00
21431;BME280;10876;49.038;10.608;2022-09-02T04:44:19;101205.94;;;10.47;100.00
21431;BME280;10876;49.038;10.608;2022-09-02T04:46:45;101209.88;;;10.51;100.00
21431;BME280;10876;49.038;10.608;2022-09-02T04:49:14;101213.16;;;10.53;100.00
21431;BME280;10876;49.038;10.608;2022-09-02T04:51:41;101206.03;;;10.52;100.00
21431;BME280;10876;49.038;10.608;2022-09-02T04:54:08;101202.69;;;10.50;100.00
21431;BME280;10876;49.038;10.608;2022-09-02T04:56:35;101199.81;;;10.56;100.00
21431;BME280;10876;49.038;10.608;2022-09-02T04:59:02;101203.97;;;10.59;100.00
21431;BME280;10876;49.038;10.608;2022-09-02T05:01:32;101205.53;;;10.72;100.00
21431;BME280;10876;49.038;10.608;2022-09-02T05:03:59;101218.00;;;10.79;100.00
21431;BME280;10876;49.038;10.608;2022-09-02T05:06:28;101218.66;;;10.87;100.00
21431;BME280;10876;49.038;10.608;2022-09-02T05:08:57;101226.78;;;10.98;100.00
21431;BME280;10876;49.038;10.608;2022-09-02T05:11:26;101234.03;;;11.04;100.00
21431;BME280;10876;49.038;10.608;2022-09-02T05:13:55;101228.28;;;11.06;100.00
21431;BME280;10876;49.038;10.608;2022-09-02T05:16:25;101161.94;;;11.09;100.00
21431;BME280;10876;49.038;10.608;2022-09-02T05:18:53;101164.75;;;11.14;100.00
21431;BME280;10876;49.038;10.608;2022-09-02T05:21:20;101168.13;;;11.21;100.00
21431;BME280;10876;49.038;10.608;2022-09-02T05:23:49;101170.69;;;11.28;100.00
21431;BME280;10876;49.038;10.608;2022-09-02T05:26:16;101182.06;;;11.37;100.00
21431;BME280;10876;49.038;10.608;2022-09-02T05:28:43;101179.94;;;11.44;100.00
21431;BME280;10876;49.038;10.608;2022-09-02T05:31:12;101179.44;;;11.47;100.00
21431;BME280;10876;49.038;10.608;2022-09-02T05:33:39;101174.59;;;11.54;100.00
21431;BME280;10876;49.038;10.608;2022-09-02T05:36:08;101167.56;;;11.63;100.00
21431;BME280;10876;49.038;10.608;2022-09-02T05:38:37;101170.38;;;11.68;100.00
21431;BME280;10876;49.038;10.608;2022-09-02T05:41:06;101174.53;;;11.98;100.00
21431;BME280;10876;49.038;10.608;2022-09-02T05:43:34;101188.06;;;12.32;100.00
21431;BME280;10876;49.038;10.608;2022-09-02T05:46:04;101224.53;;;12.87;100.00
21431;BME280;10876;49.038;10.608;2022-09-02T05:48:32;101232.91;;;13.39;100.00
21431;BME280;10876;49.038;10.608;2022-09-02T05:51:17;101246.94;;;14.06;100.00
21431;BME280;10876;49.038;10.608;2022-09-02T05:53:43;101273.00;;;15.07;100.00
21431;BME280;10876;49.038;10.608;2022-09-02T05:56:11;101238.34;;;15.71;100.00
21431;BME280;10876;49.038;10.608;2022-09-02T05:58:38;101137.19;;;15.70;100.00
21431;BME280;10876;49.038;10.608;2022-09-02T06:01:07;101007.34;;;15.20;100.00
21431;BME280;10876;49.038;10.608;2022-09-02T06:03:34;100988.75;;;15.75;100.00
21431;BME280;10876;49.038;10.608;2022-09-02T06:06:01;100953.00;;;16.13;100.00
21431;BME280;10876;49.038;10.608;2022-09-02T06:08:28;100853.34;;;16.24;100.00
21431;BME280;10876;49.038;10.608;2022-09-02T06:10:55;100770.88;;;16.07;100.00
21431;BME280;10876;49.038;10.608;2022-09-02T06:13:23;100733.06;;;16.21;100.00
21431;BME280;10876;49.038;10.608;2022-09-02T06:15:50;100718.72;;;16.71;100.00
21431;BME280;10876;49.038;10.608;2022-09-02T06:18:17;100707.56;;;16.95;100.00
21431;BME280;10876;49.038;10.608;2022-09-02T06:20:45;100632.09;;;17.17;100.00
21431;BME280;10876;49.038;10.608;2022-09-02T06:23:13;100550.66;;;17.18;100.00
21431;BME280;10876;49.038;10.608;2022-09-02T06:25:44;100499.03;;;17.22;100.00
21431;BME280;10876;49.038;10.608;2022-09-02T06:28:11;100452.47;;;17.24;100.00
21431;BME280;10876;49.038;10.608;2022-09-02T06:30:40;100420.25;;;17.50;100.00
21431;BME280;10876;49.038;10.608;2022-09-02T06:33:07;100362.56;;;17.52;100.00
21431;BME280;10876;49.038;10.608;2022-09-02T06:35:36;100321.88;;;17.93;100.00
21431;BME280;10876;49.038;10.608;2022-09-02T06:38:03;100299.19;;;17.99;100.00
21431;BME280;10876;49.038;10.608;2022-09-02T06:40:30;100238.53;;;17.89;100.00
21431;BME280;10876;49.038;10.608;2022-09-02T06:42:57;100181.28;;;18.02;100.00
21431;BME280;10876;49.038;10.608;2022-09-02T06:45:24;100165.78;;;18.10;100.00
21431;BME280;10876;49.038;10.608;2022-09-02T06:47:52;100106.91;;;17.95;100.00
21431;BME280;10876;49.038;10.608;2022-09-02T06:50:19;100148.66;;;18.16;100.00
21431;BME280;10876;49.038;10.608;2022-09-02T06:52:46;100107.22;;;18.37;100.00
21431;BME280;10876;49.038;10.608;2022-09-02T06:55:13;100072.44;;;18.31;100.00
21431;BME280;10876;49.038;10.608;2022-09-02T06:57:40;100048.66;;;18.13;100.00
21431;BME280;10876;49.038;10.608;2022-09-02T07:00:09;99997.63;;;18.52;100.00
21431;BME280;10876;49.038;10.608;2022-09-02T07:02:37;99946.81;;;18.22;100.00
21431;BME280;10876;49.038;10.608;2022-09-02T07:05:06;99902.56;;;18.26;100.00
21431;BME280;10876;49.038;10.608;2022-09-02T07:07:35;99850.97;;;18.33;100.00
21431;BME280;10876;49.038;10.608;2022-09-02T07:10:03;99834.97;;;18.60;100.00
21431;BME280;10876;49.038;10.608;2022-09-02T07:12:30;99801.59;;;18.77;100.00
21431;BME280;10876;49.038;10.608;2022-09-02T07:14:57;99762.41;;;18.91;100.00
21431;BME280;10876;49.038;10.608;2022-09-02T07:17:24;99729.53;;;18.81;100.00
21431;BME280;10876;49.038;10.608;2022-09-02T07:19:52;99689.41;;;18.90;100.00
21431;BME280;10876;49.038;10.608;2022-09-02T07:22:21;99645.44;;;18.80;100.00
21431;BME280;10876;49.038;10.608;2022-09-02T07:24:48;99614.91;;;18.80;100.00
21431;BME280;10876;49.038;10.608;2022-09-02T07:27:15;99591.69;;;18.64;100.00
21431;BME280;10876;49.038;10.608;2022-09-02T07:29:41;99550.72;;;18.49;100.00
21431;BME280;10876;49.038;10.608;2022-09-02T07:32:12;99547.50;;;18.71;100.00
21431;BME280;10876;49.038;10.608;2022-09-02T07:34:39;99505.69;;;18.88;100.00
21431;BME280;10876;49.038;10.608;2022-09-02T07:37:06;99442.50;;;18.61;100.00
21431;BME280;10876;49.038;10.608;2022-09-02T07:39:34;99313.47;;;19.07;100.00
21431;BME280;10876;49.038;10.608;2022-09-02T07:42:01;99261.72;;;18.87;100.00
21431;BME280;10876;49.038;10.608;2022-09-02T07:44:28;99222.56;;;18.76;100.00
21431;BME280;10876;49.038;10.608;2022-09-02T07:46:55;99214.84;;;19.13;100.00
21431;BME280;10876;49.038;10.608;2022-09-02T07:49:22;99172.13;;;19.18;100.00
21431;BME280;10876;49.038;10.608;2022-09-02T07:51:49;99144.88;;;19.08;100.00
21431;BME280;10876;49.038;10.608;2022-09-02T07:54:17;99131.44;;;19.10;100.00
21431;BME280;10876;49.038;10.608;2022-09-02T07:56:46;99109.31;;;18.98;100.00
21431;BME280;10876;49.038;10.608;2022-09-02T07:59:14;99096.94;;;19.11;100.00
21431;BME280;10876;49.038;10.608;2022-09-02T08:01:41;99086.88;;;19.70;100.00
21431;BME280;10876;49.038;10.608;2022-09-02T08:04:08;99050.09;;;19.61;100.00
21431;BME280;10876;49.038;10.608;2022-09-02T08:06:35;99031.91;;;19.63;100.00
21431;BME280;10876;49.038;10.608;2022-09-02T08:09:03;99017.72;;;19.68;100.00
21431;BME280;10876;49.038;10.608;2022-09-02T08:11:31;99034.19;;;19.77;100.00
21431;BME280;10876;49.038;10.608;2022-09-02T08:14:00;99023.84;;;20.36;100.00
21431;BME280;10876;49.038;10.608;2022-09-02T08:16:27;99026.66;;;20.16;100.00
21431;BME280;10876;49.038;10.608;2022-09-02T08:18:54;99011.19;;;20.38;100.00
21431;BME280;10876;49.038;10.608;2022-09-02T08:21:22;99001.78;;;20.23;100.00
21431;BME280;10876;49.038;10.608;2022-09-02T08:23:50;98995.28;;;20.39;100.00
21431;BME280;10876;49.038;10.608;2022-09-02T08:26:17;98981.69;;;20.80;100.00
21431;BME280;10876;49.038;10.608;2022-09-02T08:28:43;98991.25;;;20.79;100.00
21431;BME280;10876;49.038;10.608;2022-09-02T08:31:11;99037.94;;;20.66;100.00
21431;BME280;10876;49.038;10.608;2022-09-02T08:33:38;99095.63;;;20.88;100.00
21431;BME280;10876;49.038;10.608;2022-09-02T08:36:07;99061.63;;;20.37;100.00
21431;BME280;10876;49.038;10.608;2022-09-02T08:38:36;99048.91;;;20.55;100.00
21431;BME280;10876;49.038;10.608;2022-09-02T08:41:11;99040.38;;;20.67;100.00
21431;BME280;10876;49.038;10.608;2022-09-02T08:43:40;99032.81;;;20.68;100.00
21431;BME280;10876;49.038;10.608;2022-09-02T08:46:12;99005.97;;;20.56;100.00
21431;BME280;10876;49.038;10.608;2022-09-02T08:48:45;98990.25;;;20.67;100.00
21431;BME280;10876;49.038;10.608;2022-09-02T08:51:18;98973.97;;;21.19;100.00
21431;BME280;10876;49.038;10.608;2022-09-02T08:53:49;98925.38;;;20.90;100.00
21431;BME280;10876;49.038;10.608;2022-09-02T08:56:17;98915.28;;;21.08;100.00
21431;BME280;10876;49.038;10.608;2022-09-02T08:58:48;98880.06;;;20.93;100.00
21431;BME280;10876;49.038;10.608;2022-09-02T09:01:24;98854.09;;;20.85;100.00
21431;BME280;10876;49.038;10.608;2022-09-02T09:04:20;98830.31;;;21.55;100.00
21431;BME280;10876;49.038;10.608;2022-09-02T09:07:08;98778.75;;;21.05;100.00
21431;BME280;10876;49.038;10.608;2022-09-02T09:09:45;98751.03;;;21.15;100.00
21431;BME280;10876;49.038;10.608;2022-09-02T09:12:19;98704.63;;;21.34;100.00
21431;BME280;10876;49.038;10.608;2022-09-02T09:14:49;98701.06;;;21.78;100.00
21431;BME280;10876;49.038;10.608;2022-09-02T09:17:27;98656.56;;;21.92;100.00
21431;BME280;10876;49.038;10.608;2022-09-02T09:19:57;98663.19;;;22.32;100.00
21431;BME280;10876;49.038;10.608;2022-09-02T09:22:30;98652.56;;;21.93;100.00
21431;BME280;10876;49.038;10.608;2022-09-02T09:24:57;98646.88;;;21.79;100.00
21431;BME280;10876;49.038;10.608;2022-09-02T09:27:25;98637.22;;;22.24;100.00
21431;BME280;10876;49.038;10.608;2022-09-02T09:29:52;98624.31;;;22.05;100.00
21431;BME280;10876;49.038;10.608;2022-09-02T09:32:25;98609.44;;;21.80;100.00
21431;BME280;10876;49.038;10.608;2022-09-02T09:34:58;98597.84;;;21.74;100.00
21431;BME280;10876;49.038;10.608;2022-09-02T09:37:30;98591.19;;;21.93;100.00
21431;BME280;10876;49.038;10.608;2022-09-02T09:39:58;98581.41;;;22.32;100.00
21431;BME280;10876;49.038;10.608;2022-09-02T09:42:33;98563.38;;;22.15;100.00
21431;BME280;10876;49.038;10.608;2022-09-02T09:45:15;98561.06;;;22.24;100.00
21431;BME280;10876;49.038;10.608;2022-09-02T09:48:07;98550.06;;;22.81;100.00
21431;BME280;10876;49.038;10.608;2022-09-02T09:50:36;98531.88;;;22.07;100.00
21431;BME280;10876;49.038;10.608;2022-09-02T09:53:17;98512.25;;;21.78;100.00
21431;BME280;10876;49.038;10.608;2022-09-02T09:55:51;98506.13;;;22.57;100.00
21431;BME280;10876;49.038;10.608;2022-09-02T09:58:19;98504.50;;;22.48;100.00
21431;BME280;10876;49.038;10.608;2022-09-02T10:00:47;98492.56;;;22.41;100.00
21431;BME280;10876;49.038;10.608;2022-09-02T10:03:24;98476.22;;;22.64;100.00
21431;BME280;10876;49.038;10.608;2022-09-02T10:05:53;98475.00;;;22.47;100.00
21431;BME280;10876;49.038;10.608;2022-09-02T10:08:22;98474.22;;;22.93;100.00
21431;BME280;10876;49.038;10.608;2022-09-02T10:10:58;98463.88;;;23.05;100.00
21431;BME280;10876;49.038;10.608;2022-09-02T10:13:28;98455.38;;;23.48;100.00
21431;BME280;10876;49.038;10.608;2022-09-02T10:16:13;98450.66;;;22.94;100.00
21431;BME280;10876;49.038;10.608;2022-09-02T10:18:48;98452.69;;;22.98;100.00
21431;BME280;10876;49.038;10.608;2022-09-02T10:21:30;98431.94;;;22.63;100.00
21431;BME280;10876;49.038;10.608;2022-09-02T10:24:07;98421.53;;;22.31;100.00
21431;BME280;10876;49.038;10.608;2022-09-02T10:26:44;98420.75;;;22.84;100.00
21431;BME280;10876;49.038;10.608;2022-09-02T10:29:37;98414.72;;;23.14;100.00
21431;BME280;10876;49.038;10.608;2022-09-02T10:32:28;98406.75;;;23.24;100.00
21431;BME280;10876;49.038;10.608;2022-09-02T10:35:07;98401.53;;;23.29;100.00
21431;BME280;10876;49.038;10.608;2022-09-02T10:37:42;98402.78;;;23.00;100.00
21431;BME280;10876;49.038;10.608;2022-09-02T10:40:12;98392.81;;;23.06;100.00
21431;BME280;10876;49.038;10.608;2022-09-02T10:42:47;98400.00;;;22.71;100.00
21431;BME280;10876;49.038;10.608;2022-09-02T10:45:18;98386.81;;;22.86;100.00
21431;BME280;10876;49.038;10.608;2022-09-02T10:47:53;98380.06;;;22.73;100.00
21431;BME280;10876;49.038;10.608;2022-09-02T10:50:34;98380.81;;;22.91;100.00
21431;BME280;10876;49.038;10.608;2022-09-02T10:53:14;98367.13;;;23.43;100.00
21431;BME280;10876;49.038;10.608;2022-09-02T10:55:51;98369.19;;;23.28;100.00
21431;BME280;10876;49.038;10.608;2022-09-02T10:58:29;98365.09;;;23.51;100.00
21431;BME280;10876;49.038;10.608;2022-09-02T11:00:59;98361.94;;;23.42;100.00
21431;BME280;10876;49.038;10.608;2022-09-02T11:03:29;98353.91;;;23.51;100.00
21431;BME280;10876;49.038;10.608;2022-09-02T11:06:03;98352.34;;;23.50;100.00
21431;BME280;10876;49.038;10.608;2022-09-02T11:08:37;98361.63;;;23.14;100.00
21431;BME280;10876;49.038;10.608;2022-09-02T11:11:07;98351.00;;;23.69;100.00
21431;BME280;10876;49.038;10.608;2022-09-02T11:13:42;98349.97;;;23.41;100.00
21431;BME280;10876;49.038;10.608;2022-09-02T11:16:16;98343.06;;;23.64;100.00
21431;BME280;10876;49.038;10.608;2022-09-02T11:18:49;98333.66;;;23.25;100.00
21431;BME280;10876;49.038;10.608;2022-09-02T11:21:28;98335.25;;;23.26;100.00
21431;BME280;10876;49.038;10.608;2022-09-02T11:24:01;98318.81;;;23.39;100.00
21431;BME280;10876;49.038;10.608;2022-09-02T11:26:34;98319.97;;;23.52;100.00
21431;BME280;10876;49.038;10.608;2022-09-02T11:29:11;98319.22;;;23.41;100.00
21431;BME280;10876;49.038;10.608;2022-09-02T11:31:42;98303.22;;;24.08;100.00
21431;BME280;10876;49.038;10.608;2022-09-02T11:34:18;98292.69;;;23.67;100.00
21431;BME280;10876;49.038;10.608;2022-09-02T11:36:47;98292.50;;;24.48;100.00
21431;BME280;10876;49.038;10.608;2022-09-02T11:39:18;98301.75;;;23.15;100.00
21431;BME280;10876;49.038;10.608;2022-09-02T11:41:57;98296.78;;;23.52;100.00
21431;BME280;10876;49.038;10.608;2022-09-02T11:44:42;98295.56;;;24.12;100.00
21431;BME280;10876;49.038;10.608;2022-09-02T11:47:35;98303.88;;;23.67;100.00
21431;BME280;10876;49.038;10.608;2022-09-02T11:50:41;98298.84;;;24.07;100.00
21431;BME280;10876;49.038;10.608;2022-09-02T11:53:18;98303.75;;;23.92;100.00
21431;BME280;10876;49.038;10.608;2022-09-02T11:55:49;98298.94;;;23.93;100.00
21431;BME280;10876;49.038;10.608;2022-09-02T11:58:30;98295.88;;;23.69;100.00
21431;BME280;10876;49.038;10.608;2022-09-02T12:01:15;98295.47;;;24.26;100.00
21431;BME280;10876;49.038;10.608;2022-09-02T12:03:46;98293.59;;;23.50;100.00
21431;BME280;10876;49.038;10.608;2022-09-02T12:06:17;98290.75;;;23.57;100.00
21431;BME280;10876;49.038;10.608;2022-09-02T12:09:09;98297.53;;;23.59;100.00
21431;BME280;10876;49.038;10.608;2022-09-02T12:11:51;98310.78;;;23.48;100.00
21431;BME280;10876;49.038;10.608;2022-09-02T12:21:11;98295.34;;;23.19;100.00
21431;BME280;10876;49.038;10.608;2022-09-02T12:27:08;98302.28;;;23.66;100.00
21431;BME280;10876;49.038;10.608;2022-09-02T12:29:36;98300.34;;;23.56;100.00
21431;BME280;10876;49.038;10.608;2022-09-02T12:32:04;98299.94;;;23.61;100.00
21431;BME280;10876;49.038;10.608;2022-09-02T12:34:53;98286.03;;;23.47;100.00
21431;BME280;10876;49.038;10.608;2022-09-02T12:37:49;98294.13;;;23.97;100.00
21431;BME280;10876;49.038;10.608;2022-09-02T12:40:22;98288.94;;;23.25;100.00
21431;BME280;10876;49.038;10.608;2022-09-02T12:42:55;98284.75;;;23.62;100.00
21431;BME280;10876;49.038;10.608;2022-09-02T12:45:26;98279.31;;;23.33;100.00
21431;BME280;10876;49.038;10.608;2022-09-02T12:47:58;98265.16;;;23.62;100.00
21431;BME280;10876;49.038;10.608;2022-09-02T12:50:29;98281.69;;;23.38;100.00
21431;BME280;10876;49.038;10.608;2022-09-02T12:53:24;98292.81;;;23.46;100.00
21431;BME280;10876;49.038;10.608;2022-09-02T12:55:56;98276.53;;;23.96;100.00
21431;BME280;10876;49.038;10.608;2022-09-02T12:58:29;98257.00;;;24.34;100.00
21431;BME280;10876;49.038;10.608;2022-09-02T13:01:05;98262.81;;;24.09;100.00
21431;BME280;10876;49.038;10.608;2022-09-02T13:06:31;98269.63;;;24.08;100.00
21431;BME280;10876;49.038;10.608;2022-09-02T13:09:30;98262.94;;;23.95;100.00